Time;durP1;ratioP1;P1;durP2;ratioP2;P2;SDS_P1;SDS_P2;PMS_P1;PMS_P2;Temp;Humidity;BMP_temperature;BMP_pressure;BME280_temperature;BME280_humidity;BME280_pressure;Samples;Min_cycle;Max_cycle;Signal;HPM_P1;HPM_P2
2021/09/08 00:01:37;;;;;;;27.47;17.23;;;;;;;15.59;100.00;101833.31;7373063;19;20933;-55
2021/09/08 00:04:10;;;;;;;34.67;21.57;;;;;;;15.52;100.00;101833.09;7396954;19;20398;-52
2021/09/08 00:06:39;;;;;;;18.90;13.07;;;;;;;15.38;100.00;101829.03;7394221;19;20941;-54
2021/09/08 00:09:09;;;;;;;18.20;11.53;;;;;;;15.31;100.00;101832.25;7398177;19;20742;-56
2021/09/08 00:11:38;;;;;;;23.47;12.10;;;;;;;15.35;100.00;101834.13;7394609;19;20398;-54
2021/09/08 00:14:08;;;;;;;16.10;10.67;;;;;;;15.25;100.00;101833.78;7398198;19;20388;-53
2021/09/08 00:16:37;;;;;;;15.33;11.00;;;;;;;15.22;100.00;101833.66;7392453;19;20423;-51
2021/09/08 00:19:10;;;;;;;16.40;10.73;;;;;;;15.22;100.00;101833.66;7397928;19;20398;-56
2021/09/08 00:21:39;;;;;;;13.60;8.47;;;;;;;15.15;100.00;101833.34;7394213;19;20926;-53
2021/09/08 00:24:08;;;;;;;20.73;11.83;;;;;;;15.18;100.00;101833.47;7395174;19;20383;-56
2021/09/08 00:26:38;;;;;;;14.80;10.63;;;;;;;15.09;100.00;101827.06;7400816;19;20433;-55
2021/09/08 00:29:07;;;;;;;14.80;10.30;;;;;;;15.02;100.00;101824.19;7405218;19;20453;-52
2021/09/08 00:31:37;;;;;;;13.03;9.90;;;;;;;15.02;100.00;101826.78;7401198;19;20411;-55
2021/09/08 00:34:09;;;;;;;14.30;9.23;;;;;;;15.02;100.00;101819.00;7405264;19;20665;-55
2021/09/08 00:36:39;;;;;;;14.47;9.80;;;;;;;14.98;100.00;101818.84;7400771;19;20471;-52
2021/09/08 00:39:08;;;;;;;18.00;11.23;;;;;;;14.97;100.00;101822.28;7404834;19;20400;-58
2021/09/08 00:41:38;;;;;;;21.63;14.47;;;;;;;14.86;100.00;101818.34;7400341;19;20870;-52
2021/09/08 00:44:11;;;;;;;24.97;15.40;;;;;;;14.88;100.00;101821.00;7401572;19;20388;-53
2021/09/08 00:46:41;;;;;;;38.13;24.57;;;;;;;14.95;100.00;101817.84;7400621;19;20462;-56
2021/09/08 00:49:14;;;;;;;35.03;22.60;;;;;;;14.87;100.00;101822.72;7404570;19;20376;-52
2021/09/08 00:51:44;;;;;;;40.50;24.83;;;;;;;14.86;100.00;101828.75;7400521;19;20723;-55
2021/09/08 00:54:14;;;;;;;45.87;24.50;;;;;;;14.85;100.00;101829.56;7404584;19;20394;-54
2021/09/08 00:56:45;;;;;;;45.20;24.50;;;;;;;14.78;100.00;101836.25;7400332;19;20423;-54
2021/09/08 00:59:15;;;;;;;48.63;28.73;;;;;;;14.80;100.00;101821.59;7403579;19;20417;-58
2021/09/08 01:01:44;;;;;;;43.33;25.10;;;;;;;14.79;100.00;101822.41;7400468;19;20438;-57
2021/09/08 01:04:17;;;;;;;38.00;24.40;;;;;;;14.75;100.00;101824.81;7402187;19;20861;-54
2021/09/08 01:06:46;;;;;;;32.80;20.67;;;;;;;14.72;100.00;101821.22;7399857;19;20424;-54
2021/09/08 01:09:17;;;;;;;20.60;11.00;;;;;;;14.68;100.00;101813.25;7403714;19;20396;-51
2021/09/08 01:11:49;;;;;;;15.00;9.40;;;;;;;14.69;100.00;101815.03;7399997;19;20526;-55
2021/09/08 01:14:19;;;;;;;15.33;10.67;;;;;;;14.68;100.00;101803.72;7403639;19;20400;-51
2021/09/08 01:16:51;;;;;;;19.77;10.37;;;;;;;14.71;100.00;101803.88;7398771;19;20409;-53
2021/09/08 01:19:23;;;;;;;14.60;9.13;;;;;;;14.65;100.00;101800.13;7403485;19;20398;-52
2021/09/08 01:21:53;;;;;;;14.53;9.80;;;;;;;14.65;100.00;101798.44;7399597;19;20428;-50
2021/09/08 01:24:26;;;;;;;13.47;9.27;;;;;;;14.69;100.00;101800.34;7401722;19;20527;-57
2021/09/08 01:26:57;;;;;;;12.93;9.20;;;;;;;14.72;100.00;101800.44;7399381;19;20395;-50
2021/09/08 01:29:26;;;;;;;16.90;10.17;;;;;;;14.69;100.00;101792.53;7403211;19;20443;-52
2021/09/08 01:31:58;;;;;;;31.47;19.13;;;;;;;14.67;100.00;101793.31;7398571;19;20439;-54
2021/09/08 01:34:28;;;;;;;23.60;15.23;;;;;;;14.66;100.00;101791.53;7403586;19;20398;-57
2021/09/08 01:36:58;;;;;;;42.60;24.57;;;;;;;14.61;100.00;101795.66;7396234;19;20471;-54
2021/09/08 01:39:30;;;;;;;31.23;18.63;;;;;;;14.59;100.00;101795.56;7402756;19;20886;-54
2021/09/08 01:41:59;;;;;;;29.00;19.20;;;;;;;14.60;100.00;101794.75;7398854;19;20509;-58
2021/09/08 01:44:29;;;;;;;30.20;18.50;;;;;;;14.61;100.00;101791.31;7401040;19;20406;-51
2021/09/08 01:50:16;;;;;;;36.00;22.80;;;;;;;14.47;100.00;101792.47;7401606;19;20323;-54
2021/09/08 01:52:46;;;;;;;20.60;13.27;;;;;;;14.46;100.00;101788.97;7397693;19;20419;-53
2021/09/08 01:55:18;;;;;;;25.57;16.70;;;;;;;14.41;100.00;101788.78;7402209;19;20384;-55
2021/09/08 01:57:47;;;;;;;31.30;19.33;;;;;;;14.40;100.00;101786.09;7398506;19;20474;-53
2021/09/08 02:00:18;;;;;;;33.70;22.10;;;;;;;14.36;100.00;101790.28;7402324;19;20396;-50
2021/09/08 02:02:47;;;;;;;19.20;13.37;;;;;;;14.34;100.00;101786.75;7397260;19;20482;-53
2021/09/08 02:05:17;;;;;;;19.90;11.87;;;;;;;14.31;100.00;101781.44;7401820;19;20400;-53
2021/09/08 02:07:47;;;;;;;20.43;14.17;;;;;;;14.36;100.00;101786.81;7397992;19;20877;-53
2021/09/08 02:10:19;;;;;;;26.00;14.47;;;;;;;14.40;100.00;101792.19;7401189;19;20383;-56
2021/09/08 02:12:48;;;;;;;18.00;12.27;;;;;;;14.45;100.00;101784.59;7396987;19;20504;-50
2021/09/08 02:15:18;;;;;;;33.20;21.33;;;;;;;14.44;100.00;101786.34;7401483;19;20391;-55
2021/09/08 02:17:47;;;;;;;28.50;17.90;;;;;;;14.51;100.00;101784.00;7398040;19;20692;-51
2021/09/08 02:20:17;;;;;;;15.57;9.57;;;;;;;14.38;100.00;101780.88;7400603;19;20403;-50
2021/09/08 02:22:46;;;;;;;14.10;9.47;;;;;;;14.31;100.00;101778.84;7396911;19;20724;-55
2021/09/08 02:25:18;;;;;;;12.73;9.20;;;;;;;14.34;100.00;101780.66;7399431;19;20703;-55
2021/09/08 02:27:48;;;;;;;11.30;8.60;;;;;;;14.29;100.00;101788.25;7396744;19;20755;-50
2021/09/08 02:30:17;;;;;;;14.20;10.10;;;;;;;14.22;100.00;101781.94;7401337;19;20749;-52
2021/09/08 02:32:47;;;;;;;11.80;8.70;;;;;;;14.23;100.00;101785.41;7396164;19;20471;-55
2021/09/08 02:35:16;;;;;;;12.00;7.83;;;;;;;14.13;100.00;101782.41;7400933;19;20439;-57
2021/09/08 02:37:46;;;;;;;10.57;8.30;;;;;;;14.10;100.00;101784.00;7396714;19;20475;-55
2021/09/08 02:40:18;;;;;;;13.60;8.67;;;;;;;14.03;100.00;101785.41;7401167;19;20390;-57
2021/09/08 02:42:48;;;;;;;12.57;8.40;;;;;;;14.01;100.00;101787.94;7396265;19;20478;-55
2021/09/08 02:45:17;;;;;;;10.53;8.10;;;;;;;14.01;100.00;101781.88;7397905;19;20388;-52
2021/09/08 02:47:47;;;;;;;12.23;8.50;;;;;;;14.00;100.00;101786.16;7373621;19;20865;-55
2021/09/08 02:50:16;;;;;;;10.80;8.50;;;;;;;14.01;100.00;101787.06;7400697;19;20730;-52
2021/09/08 02:52:46;;;;;;;12.10;8.53;;;;;;;14.01;100.00;101789.66;7396213;19;20422;-58
2021/09/08 02:55:15;;;;;;;11.17;8.20;;;;;;;13.95;100.00;101782.47;7400492;19;20384;-52
2021/09/08 02:57:47;;;;;;;11.17;8.00;;;;;;;13.84;100.00;101776.81;7396648;19;20506;-58
2021/09/08 03:00:18;;;;;;;11.60;7.13;;;;;;;13.92;100.00;101774.56;7400569;19;20451;-54
2021/09/08 03:02:47;;;;;;;13.43;8.70;;;;;;;13.98;100.00;101776.53;7395319;19;20470;-54
2021/09/08 03:05:17;;;;;;;11.80;8.70;;;;;;;13.92;100.00;101774.56;7397893;19;20392;-59
2021/09/08 03:07:46;;;;;;;11.40;7.50;;;;;;;13.86;100.00;101775.19;7396019;19;20420;-57
2021/09/08 03:10:16;;;;;;;12.03;7.87;;;;;;;13.81;100.00;101779.28;7400106;19;20463;-54
2021/09/08 03:12:48;;;;;;;11.67;7.90;;;;;;;13.81;100.00;101774.09;7395421;19;20498;-54
2021/09/08 03:15:17;;;;;;;13.40;8.27;;;;;;;13.85;100.00;101776.00;7399679;19;20384;-55
2021/09/08 03:17:47;;;;;;;16.70;8.00;;;;;;;13.86;100.00;101772.63;7394152;19;20444;-56
2021/09/08 03:20:17;;;;;;;13.93;8.53;;;;;;;13.86;100.00;101767.44;7399908;19;20396;-55
2021/09/08 03:22:46;;;;;;;12.30;8.03;;;;;;;13.83;100.00;101767.28;7391278;19;20421;-56
2021/09/08 03:25:16;;;;;;;14.33;8.70;;;;;;;13.84;100.00;101765.56;7398088;19;20472;-56
2021/09/08 03:27:48;;;;;;;12.63;8.27;;;;;;;13.80;100.00;101768.84;7391929;19;20490;-56
2021/09/08 03:30:18;;;;;;;12.07;8.10;;;;;;;13.64;100.00;101771.63;7399543;19;20395;-59
2021/09/08 03:32:47;;;;;;;12.17;8.10;;;;;;;13.61;100.00;101763.72;7391418;19;20816;-58
2021/09/08 03:35:16;;;;;;;11.20;8.10;;;;;;;13.66;100.00;101763.94;7399137;19;20402;-56
2021/09/08 03:37:46;;;;;;;10.57;8.00;;;;;;;13.73;100.00;101762.47;7391488;19;20712;-59
2021/09/08 03:40:16;;;;;;;14.53;9.10;;;;;;;13.73;100.00;101754.69;7398396;19;20379;-52
2021/09/08 03:42:48;;;;;;;12.20;8.10;;;;;;;13.71;100.00;101758.94;7391533;19;20479;-52
2021/09/08 03:45:18;;;;;;;9.10;7.67;;;;;;;13.79;100.00;101760.16;7397707;19;20463;-53
2021/09/08 03:47:47;;;;;;;11.90;8.17;;;;;;;13.82;100.00;101762.00;7391694;19;20420;-52
2021/09/08 03:50:17;;;;;;;10.83;8.47;;;;;;;13.63;100.00;101754.31;7398975;19;20387;-53
2021/09/08 03:52:46;;;;;;;10.90;8.37;;;;;;;13.56;100.00;101762.63;7391067;19;20694;-52
2021/09/08 03:55:16;;;;;;;13.27;8.80;;;;;;;13.60;100.00;101755.88;7398716;19;20684;-51
2021/09/08 03:57:45;;;;;;;12.97;8.00;;;;;;;13.62;100.00;101762.91;7390672;19;20442;-60
2021/09/08 04:00:18;;;;;;;11.77;8.10;;;;;;;13.59;100.00;101765.34;7400530;19;20447;-54
2021/09/08 04:02:48;;;;;;;11.10;8.10;;;;;;;13.61;100.00;101761.13;7400764;19;20415;-56
2021/09/08 04:05:18;;;;;;;11.87;8.43;;;;;;;13.63;100.00;101751.72;7404205;19;20387;-55
2021/09/08 04:07:47;;;;;;;21.43;9.20;;;;;;;13.68;100.00;101756.22;7398580;19;20425;-55
2021/09/08 04:10:17;;;;;;;16.20;9.27;;;;;;;13.69;100.00;101752.81;7406017;19;20407;-54
2021/09/08 04:12:46;;;;;;;13.87;8.77;;;;;;;13.74;100.00;101746.13;7396845;19;20790;-55
2021/09/08 04:15:18;;;;;;;11.37;8.50;;;;;;;13.73;100.00;101744.31;7405802;19;20388;-59
2021/09/08 04:17:48;;;;;;;12.87;8.90;;;;;;;13.82;100.00;101744.75;7397974;19;20411;-57
2021/09/08 04:20:17;;;;;;;12.30;8.60;;;;;;;13.89;100.00;101739.00;7404992;19;20846;-52
2021/09/08 04:22:47;;;;;;;14.40;9.00;;;;;;;13.84;100.00;101737.91;7397277;19;20445;-56
2021/09/08 04:25:16;;;;;;;12.00;8.73;;;;;;;13.68;100.00;101738.06;7404045;19;20398;-55
2021/09/08 04:27:46;;;;;;;13.13;8.57;;;;;;;13.64;100.00;101745.69;7397771;19;20415;-55
2021/09/08 04:30:18;;;;;;;13.10;8.10;;;;;;;13.58;100.00;101742.84;7405411;19;20902;-58
2021/09/08 04:32:47;;;;;;;13.40;8.50;;;;;;;13.68;100.00;101743.25;7398415;19;20421;-56
2021/09/08 04:35:17;;;;;;;15.33;9.30;;;;;;;13.59;100.00;101742.00;7405229;19;20910;-58
2021/09/08 04:37:46;;;;;;;19.00;10.17;;;;;;;13.56;100.00;101741.88;7396489;19;20441;-53
2021/09/08 04:40:16;;;;;;;14.97;9.17;;;;;;;13.44;100.00;101739.56;7405140;19;20403;-51
2021/09/08 04:42:45;;;;;;;16.80;9.40;;;;;;;13.34;100.00;101740.84;7396739;19;20764;-54
2021/09/08 04:45:18;;;;;;;16.50;9.70;;;;;;;13.44;100.00;101746.47;7403836;19;20400;-52
2021/09/08 04:47:47;;;;;;;13.97;8.70;;;;;;;13.57;100.00;101748.84;7375930;19;20406;-55
2021/09/08 04:50:17;;;;;;;12.13;8.77;;;;;;;13.64;100.00;101744.81;7404632;19;20700;-55
2021/09/08 04:52:46;;;;;;;14.70;10.20;;;;;;;13.57;100.00;101748.84;7395471;19;20470;-56
2021/09/08 04:55:16;;;;;;;30.70;18.33;;;;;;;13.75;100.00;101742.72;7404616;19;20396;-53
2021/09/08 04:57:45;;;;;;;53.73;32.77;;;;;;;13.80;100.00;101741.22;7396356;19;20478;-59
2021/09/08 05:00:18;;;;;;;51.23;30.00;;;;;;;13.77;100.00;101746.25;7404344;19;20418;-55
2021/09/08 05:02:48;;;;;;;61.13;36.23;;;;;;;13.64;100.00;101745.69;7395442;19;20444;-55
2021/09/08 05:05:17;;;;;;;31.47;19.90;;;;;;;13.74;100.00;101746.13;7403109;19;20400;-56
2021/09/08 05:07:47;;;;;;;40.37;24.77;;;;;;;13.76;100.00;101753.13;7400330;19;20447;-55
2021/09/08 05:10:16;;;;;;;42.77;26.50;;;;;;;13.78;100.00;101753.19;7402768;19;20411;-53
2021/09/08 05:12:46;;;;;;;58.33;36.10;;;;;;;13.87;100.00;101745.84;7395240;19;20499;-57
2021/09/08 05:15:18;;;;;;;62.70;39.93;;;;;;;13.96;100.00;101757.44;7403623;19;20460;-57
2021/09/08 05:17:48;;;;;;;28.40;18.10;;;;;;;13.88;100.00;101752.81;7396471;19;20466;-51
2021/09/08 05:20:17;;;;;;;28.00;18.57;;;;;;;13.99;100.00;101748.06;7403848;19;20392;-52
2021/09/08 05:22:47;;;;;;;29.20;17.83;;;;;;;13.89;100.00;101749.38;7395425;19;20431;-53
2021/09/08 05:25:16;;;;;;;27.07;16.43;;;;;;;13.83;100.00;101751.72;7402870;19;20863;-53
2021/09/08 05:27:46;;;;;;;32.40;18.60;;;;;;;13.67;100.00;101750.13;7394739;19;20694;-60
2021/09/08 05:30:18;;;;;;;31.73;18.87;;;;;;;13.57;100.00;101743.66;7403295;19;20392;-49
2021/09/08 05:32:47;;;;;;;27.60;14.57;;;;;;;13.57;100.00;101754.03;7395125;19;20413;-52
2021/09/08 05:35:17;;;;;;;40.80;25.10;;;;;;;13.60;100.00;101759.34;7403036;19;20765;-54
2021/09/08 05:37:46;;;;;;;27.60;17.83;;;;;;;13.63;100.00;101753.41;7395158;19;20423;-53
2021/09/08 05:40:18;;;;;;;92.93;48.77;;;;;;;13.63;100.00;101753.41;7403144;19;20388;-52
2021/09/08 05:42:47;;;;;;;49.83;29.50;;;;;;;13.64;100.00;101761.25;7394670;19;20422;-55
2021/09/08 05:45:19;;;;;;;35.37;21.20;;;;;;;13.66;100.00;101763.94;7401353;19;20392;-54
2021/09/08 05:47:49;;;;;;;22.03;13.90;;;;;;;13.62;100.00;101762.91;7395725;19;20727;-54
2021/09/08 05:50:18;;;;;;;22.50;13.87;;;;;;;13.66;100.00;101768.22;7402768;19;20455;-54
2021/09/08 05:52:48;;;;;;;38.80;23.90;;;;;;;13.70;100.00;101764.94;7394321;19;20419;-57
2021/09/08 05:55:17;;;;;;;24.60;15.07;;;;;;;13.73;100.00;101765.06;7402477;19;20504;-58
2021/09/08 05:57:47;;;;;;;17.30;11.90;;;;;;;13.75;100.00;101771.25;7395302;19;20479;-54
2021/09/08 06:00:20;;;;;;;33.43;18.37;;;;;;;13.85;100.00;101770.81;7401536;19;21156;-56
2021/09/08 06:02:49;;;;;;;18.27;12.77;;;;;;;13.88;100.00;101764.88;7394314;19;20890;-56
2021/09/08 06:05:19;;;;;;;17.50;12.00;;;;;;;13.89;100.00;101777.91;7401730;19;20388;-56
2021/09/08 06:07:49;;;;;;;19.03;11.43;;;;;;;13.91;100.00;101776.28;7395429;19;20428;-57
2021/09/08 06:10:20;;;;;;;16.37;11.80;;;;;;;13.97;100.00;101764.41;7402102;19;20380;-53
2021/09/08 06:12:51;;;;;;;17.27;10.93;;;;;;;14.03;100.00;101765.56;7393765;19;20502;-57
2021/09/08 06:15:23;;;;;;;20.00;10.97;;;;;;;14.11;100.00;101771.06;7402369;19;20395;-52
2021/09/08 06:17:52;;;;;;;17.20;11.73;;;;;;;14.18;100.00;101769.63;7394129;19;20723;-57
2021/09/08 06:20:22;;;;;;;19.67;11.90;;;;;;;14.21;100.00;101771.47;7400761;19;20402;-55
2021/09/08 06:22:51;;;;;;;18.37;11.40;;;;;;;14.26;100.00;101767.38;7391010;19;20908;-58
2021/09/08 06:25:21;;;;;;;15.83;10.97;;;;;;;14.34;100.00;101765.09;7401218;19;20415;-56
2021/09/08 06:27:50;;;;;;;17.50;12.40;;;;;;;14.41;100.00;101761.94;7394095;19;20415;-60
2021/09/08 06:30:22;;;;;;;20.90;13.40;;;;;;;14.49;100.00;101759.66;7401385;19;20392;-58
2021/09/08 06:32:53;;;;;;;20.30;12.60;;;;;;;14.61;100.00;101759.28;7393312;19;20414;-57
2021/09/08 06:35:23;;;;;;;17.20;11.70;;;;;;;14.59;100.00;101754.03;7400801;19;20384;-58
2021/09/08 06:37:52;;;;;;;23.30;12.83;;;;;;;14.67;100.00;101755.22;7393643;19;20430;-59
2021/09/08 06:40:22;;;;;;;18.17;12.77;;;;;;;14.77;100.00;101759.09;7399998;19;20474;-58
2021/09/08 06:42:51;;;;;;;17.87;12.60;;;;;;;14.90;100.00;101746.59;7393111;19;20673;-56
2021/09/08 06:45:26;;;;;;;17.67;11.87;;;;;;;14.98;100.00;101745.22;7400611;19;20459;-58
2021/09/08 06:47:56;;;;;;;21.50;12.33;;;;;;;15.08;100.00;101742.13;7393834;19;20434;-53
2021/09/08 06:50:25;;;;;;;22.10;12.57;;;;;;;15.17;100.00;101736.41;7400757;19;20396;-60
2021/09/08 06:52:58;;;;;;;19.63;12.80;;;;;;;15.27;100.00;101739.38;7392752;19;20893;-54
2021/09/08 06:55:27;;;;;;;25.50;13.60;;;;;;;15.30;100.00;101732.56;7399805;19;20392;-56
2021/09/08 06:57:57;;;;;;;24.13;14.53;;;;;;;15.41;100.00;101732.97;7393015;19;20482;-57
2021/09/08 07:00:29;;;;;;;20.17;13.10;;;;;;;15.46;100.00;101731.44;7400060;19;20395;-58
2021/09/08 07:02:58;;;;;;;25.43;16.60;;;;;;;15.55;100.00;101728.28;7392190;19;20432;-54
2021/09/08 07:05:28;;;;;;;25.10;16.03;;;;;;;15.49;100.00;101726.34;7399585;19;20687;-56
2021/09/08 07:07:58;;;;;;;23.73;16.27;;;;;;;15.61;100.00;101722.41;7392536;19;20419;-58
2021/09/08 07:10:27;;;;;;;45.70;27.60;;;;;;;15.68;100.00;101724.41;7400080;19;20394;-56
2021/09/08 07:12:57;;;;;;;45.40;27.37;;;;;;;15.78;100.00;101723.91;7391289;19;20523;-60
2021/09/08 07:15:29;;;;;;;32.53;20.57;;;;;;;15.87;100.00;101725.06;7402844;19;20408;-57
2021/09/08 07:17:58;;;;;;;22.87;12.57;;;;;;;15.86;100.00;101721.59;7391909;19;20423;-55
2021/09/08 07:20:28;;;;;;;18.60;12.90;;;;;;;15.92;100.00;101719.25;7399844;19;20774;-60
2021/09/08 07:22:57;;;;;;;20.10;14.20;;;;;;;16.07;100.00;101712.78;7362218;19;20445;-56
2021/09/08 07:25:27;;;;;;;20.93;12.70;;;;;;;16.13;100.00;101718.19;7398919;19;20475;-52
2021/09/08 07:27:56;;;;;;;19.60;12.70;;;;;;;16.22;100.00;101712.44;7391724;19;21356;-55
2021/09/08 07:30:28;;;;;;;22.67;12.70;;;;;;;16.35;100.00;101705.03;7399465;19;20381;-53
2021/09/08 07:32:58;;;;;;;19.73;12.50;;;;;;;16.45;100.00;101704.47;7391347;19;20510;-53
2021/09/08 07:35:27;;;;;;;19.97;11.90;;;;;;;16.52;100.00;101701.25;7398387;19;20744;-57
2021/09/08 07:37:57;;;;;;;22.17;13.57;;;;;;;16.67;100.00;101698.22;7391356;19;20787;-57
2021/09/08 07:40:27;;;;;;;19.57;12.93;;;;;;;16.77;100.00;101696.78;7399247;19;20386;-54
2021/09/08 07:42:57;;;;;;;19.80;12.27;;;;;;;16.83;100.00;101694.38;7390936;19;20435;-55
2021/09/08 07:45:29;;;;;;;18.20;12.90;;;;;;;16.96;100.00;101692.16;7398389;19;20384;-53
2021/09/08 07:47:58;;;;;;;19.93;13.67;;;;;;;17.08;100.00;101687.34;7390074;19;20447;-53
2021/09/08 07:50:28;;;;;;;19.20;11.70;;;;;;;17.12;100.00;101684.00;7399017;19;20467;-60
2021/09/08 07:52:57;;;;;;;20.80;12.93;;;;;;;17.29;100.00;101678.38;7390322;19;20420;-56
2021/09/08 07:55:26;;;;;;;21.03;12.13;;;;;;;17.47;100.00;101682.34;7398183;19;20753;-52
2021/09/08 07:57:56;;;;;;;23.47;13.43;;;;;;;17.58;100.00;101680.91;7390409;19;20435;-54
2021/09/08 08:00:25;;;;;;;24.13;12.73;;;;;;;17.70;100.00;101679.47;7398733;19;20391;-57
2021/09/08 08:02:57;;;;;;;24.63;13.30;;;;;;;17.92;100.00;101671.38;7390014;19;20449;-53
2021/09/08 08:05:29;;;;;;;20.40;12.80;;;;;;;18.10;100.00;101674.47;7398049;19;20412;-53
2021/09/08 08:07:58;;;;;;;19.47;13.27;;;;;;;18.19;100.00;101666.84;7389568;19;20471;-52
2021/09/08 08:10:28;;;;;;;19.20;12.33;;;;;;;18.22;100.00;101661.72;7397286;19;20388;-54
2021/09/08 08:12:59;;;;;;;20.83;13.10;;;;;;;18.33;100.00;101659.34;7389777;19;20479;-54
2021/09/08 08:15:28;;;;;;;21.33;11.50;;;;;;;18.52;100.00;101657.16;7397626;19;20400;-57
2021/09/08 08:18:00;;;;;;;17.40;11.50;;;;;;;18.69;100.00;101647.09;7390101;19;20490;-55
2021/09/08 08:20:30;;;;;;;20.73;12.27;;;;;;;18.70;100.00;101654.97;7398246;19;20451;-50
2021/09/08 08:22:59;;;;;;;22.43;11.50;;;;;;;18.87;100.00;101651.84;7390073;19;20427;-55
2021/09/08 08:25:30;;;;;;;24.83;11.67;;;;;;;18.99;100.00;101653.84;7397402;19;20406;-53
2021/09/08 08:28:02;;;;;;;18.77;11.10;;;;;;;19.01;100.00;101642.56;7389029;19;20443;-57
2021/09/08 08:30:31;;;;;;;23.70;11.63;;;;;;;18.95;100.00;101647.66;7397339;19;20383;-57
2021/09/08 08:33:04;;;;;;;19.20;11.30;;;;;;;19.00;100.00;101643.41;7388820;19;20882;-55
2021/09/08 08:35:34;;;;;;;18.50;11.40;;;;;;;19.20;100.00;101649.94;7397038;19;20379;-57
2021/09/08 08:38:04;;;;;;;17.87;10.70;;;;;;;19.19;100.00;101641.22;7390050;19;20433;-51
2021/09/08 08:40:33;;;;;;;19.40;11.53;;;;;;;19.40;100.00;101638.16;7397663;19;20404;-57
2021/09/08 08:43:03;;;;;;;16.83;10.10;;;;;;;19.69;100.00;101634.31;7388906;19;20412;-53
2021/09/08 08:45:34;;;;;;;16.80;9.73;;;;;;;19.68;100.00;101635.13;7396598;19;20396;-57
2021/09/08 08:48:06;;;;;;;16.03;10.00;;;;;;;19.88;100.00;101638.09;7396993;19;20538;-51
2021/09/08 08:50:36;;;;;;;19.50;11.63;;;;;;;19.83;100.00;101638.03;7404783;19;20388;-56
2021/09/08 08:53:06;;;;;;;15.23;9.10;;;;;;;20.01;100.00;101639.25;7395234;19;20949;-52
2021/09/08 08:55:36;;;;;;;21.03;10.30;;;;;;;19.92;100.00;101641.66;7403699;19;20392;-53
2021/09/08 08:58:05;;;;;;;13.10;8.67;;;;;;;20.06;100.00;101639.31;7396791;19;20478;-47
2021/09/08 09:00:35;;;;;;;14.20;9.67;;;;;;;20.25;100.00;101635.22;7404450;19;20409;-56
2021/09/08 09:03:08;;;;;;;13.53;8.63;;;;;;;20.36;100.00;101648.50;7395044;19;20439;-54
2021/09/08 09:05:42;;;;;;;17.57;8.70;;;;;;;20.39;100.00;101642.44;7402077;19;20404;-57
2021/09/08 09:08:14;;;;;;;12.70;9.17;;;;;;;20.53;100.00;101650.47;7395442;19;20443;-56
2021/09/08 09:10:44;;;;;;;16.97;9.80;;;;;;;20.52;100.00;101639.13;7403794;19;20395;-55
2021/09/08 09:13:13;;;;;;;13.20;8.70;;;;;;;20.68;100.00;101641.97;7394579;19;20419;-53
2021/09/08 09:15:43;;;;;;;13.20;7.50;;;;;;;20.89;100.00;101639.69;7403121;19;20459;-54
2021/09/08 09:18:18;;;;;;;13.97;8.60;;;;;;;21.03;100.00;101638.97;7396709;19;20724;-53
2021/09/08 09:20:55;;;;;;;14.50;9.00;;;;;;;21.01;100.00;101638.03;7403883;19;20447;-55
2021/09/08 09:23:25;;;;;;;12.03;8.50;;;;;;;20.87;100.00;101637.88;7400797;19;20662;-53
2021/09/08 09:25:59;;;;;;;15.00;9.00;;;;;;;21.10;100.00;101632.91;7394915;19;20854;-59
2021/09/08 09:28:30;;;;;;;12.37;8.70;;;;;;;21.23;100.00;101633.94;7401344;19;20691;-60
2021/09/08 09:30:59;;;;;;;12.50;8.80;;;;;;;21.28;100.00;101631.38;7396610;19;20396;-53
2021/09/08 09:33:33;;;;;;;12.73;8.10;;;;;;;21.06;100.00;101632.88;7400646;19;20433;-53
2021/09/08 09:36:16;;;;;;;11.63;7.60;;;;;;;21.23;100.00;101633.94;7395793;19;20384;-57
2021/09/08 09:38:46;;;;;;;18.30;9.10;;;;;;;21.19;100.00;101634.78;7403170;19;20521;-54
2021/09/08 09:41:19;;;;;;;13.37;8.00;;;;;;;20.99;100.00;101631.91;7394845;19;20527;-55
2021/09/08 09:43:48;;;;;;;13.07;7.50;;;;;;;21.09;100.00;101622.41;7400742;19;20420;-59
2021/09/08 09:46:18;;;;;;;16.47;8.53;;;;;;;21.11;100.00;101624.19;7394994;19;20500;-55
2021/09/08 09:48:53;;;;;;;13.00;7.80;;;;;;;21.17;100.00;101624.25;7401258;19;20388;-54
2021/09/08 09:51:23;;;;;;;12.20;8.67;;;;;;;21.29;100.00;101617.38;7395631;19;20420;-59
2021/09/08 09:53:53;;;;;;;12.70;7.53;;;;;;;21.12;100.00;101620.69;7402269;19;20447;-57
2021/09/08 09:56:22;;;;;;;12.17;7.83;;;;;;;21.13;100.00;101622.44;7394434;19;20411;-55
2021/09/08 09:58:52;;;;;;;13.90;8.30;;;;;;;21.36;100.00;101608.72;7400211;19;20393;-60
2021/09/08 10:01:21;;;;;;;13.03;8.60;;;;;;;21.55;100.00;101611.53;7393797;19;20497;-60
2021/09/08 10:03:54;;;;;;;29.23;18.67;;;;;;;21.61;100.00;101610.69;7402021;19;20387;-57
2021/09/08 10:06:24;;;;;;;17.40;10.00;;;;;;;21.75;100.00;101602.97;7394279;19;20403;-53
2021/09/08 10:08:58;;;;;;;11.73;7.03;;;;;;;21.70;100.00;101600.31;7400449;19;20661;-58
2021/09/08 10:11:33;;;;;;;12.40;7.87;;;;;;;21.39;100.00;101603.47;7398283;19;20483;-55
2021/09/08 10:14:07;;;;;;;13.03;8.00;;;;;;;21.22;100.00;101605.94;7401748;19;20432;-57
2021/09/08 10:16:37;;;;;;;14.60;9.63;;;;;;;21.15;100.00;101591.88;7397053;19;20405;-57
2021/09/08 10:19:10;;;;;;;14.43;9.27;;;;;;;21.40;100.00;101589.53;7401474;19;20380;-59
2021/09/08 10:21:39;;;;;;;14.77;8.13;;;;;;;21.53;100.00;101589.63;7396733;19;20448;-59
2021/09/08 10:24:12;;;;;;;13.10;8.67;;;;;;;21.63;100.00;101591.47;7401196;19;20667;-56
2021/09/08 10:26:41;;;;;;;12.10;7.83;;;;;;;21.51;100.00;101581.75;7397330;19;20414;-49
2021/09/08 10:29:11;;;;;;;15.17;10.00;;;;;;;21.56;100.00;101585.28;7400040;19;20393;-54
2021/09/08 10:31:47;;;;;;;16.07;8.37;;;;;;;21.47;100.00;101589.56;7397177;19;20426;-59
2021/09/08 10:34:20;;;;;;;11.73;7.60;;;;;;;21.60;100.00;101575.69;7401261;19;20380;-56
2021/09/08 10:36:50;;;;;;;12.13;8.13;;;;;;;21.53;100.00;101574.75;7395404;19;20421;-49
2021/09/08 10:39:21;;;;;;;11.00;7.50;;;;;;;21.75;100.00;101576.72;7400998;19;20386;-60
2021/09/08 10:41:52;;;;;;;11.27;7.67;;;;;;;21.98;100.00;101576.88;7385925;19;20440;-58
2021/09/08 10:44:22;;;;;;;16.30;10.00;;;;;;;21.92;100.00;101572.47;7400515;19;20393;-57
2021/09/08 10:46:54;;;;;;;12.17;7.30;;;;;;;21.90;100.00;101568.09;7396081;19;20753;-57
2021/09/08 10:49:53;;;;;;;15.73;9.00;;;;;;;21.80;100.00;101568.00;7398986;19;20394;-53
2021/09/08 10:52:44;;;;;;;13.13;8.40;;;;;;;21.86;100.00;101572.44;7395673;19;20404;-56
2021/09/08 10:55:20;;;;;;;9.40;7.20;;;;;;;21.87;100.00;101574.19;7399457;19;20394;-60
2021/09/08 10:58:01;;;;;;;14.70;9.80;;;;;;;22.26;100.00;101561.31;7395720;19;20443;-56
2021/09/08 11:00:37;;;;;;;21.67;14.03;;;;;;;22.39;100.00;101562.25;7404266;19;20402;-54
2021/09/08 11:03:12;;;;;;;14.10;9.03;;;;;;;22.47;100.00;101560.56;7394674;19;20449;-53
2021/09/08 11:05:52;;;;;;;17.97;10.40;;;;;;;22.35;100.00;101544.72;7399289;19;20397;-56
2021/09/08 11:08:39;;;;;;;11.10;8.33;;;;;;;22.43;100.00;101550.88;7397690;19;20496;-55
2021/09/08 11:11:11;;;;;;;13.47;7.93;;;;;;;22.17;100.00;101546.38;7396324;19;20457;-56
2021/09/08 11:13:41;;;;;;;12.07;7.40;;;;;;;22.28;100.00;101553.41;7397262;19;20425;-58
2021/09/08 11:16:22;;;;;;;17.53;9.20;;;;;;;22.64;100.00;101544.88;7395408;19;20389;-58
2021/09/08 11:18:52;;;;;;;13.80;9.23;;;;;;;22.65;100.00;101549.25;7399800;19;20454;-57
2021/09/08 11:21:28;;;;;;;10.10;6.83;;;;;;;22.82;100.00;101531.78;7395570;19;20926;-57
2021/09/08 11:24:02;;;;;;;10.97;7.80;;;;;;;22.71;100.00;101531.75;7399326;19;20409;-54